Flight Track Log - Related Links

Times and Time Zones

All times are in EDT time to prevent confusion due to time zone crossing. See the FAO882 flight status page for this flight to view local times or setup timezone preferences in your user account.


Time Position Orientation Groundspeed Altitude Reporting Facility
EDT Latitude Longitude Course Direction KTS MPH feet Rate Location/Type
Mon 03:10:01 PM 27.8833 -82.6833 180° South 172 198 900  Level Tampa TRACON
Mon 03:10:49 PM 27.8500 -82.6833 180° South 204 235 2,000 1,053 Climbing Tampa TRACON
Mon 03:11:55 PM 27.7833 -82.7000 192° South 224 258 2,900 476 Climbing Tampa TRACON
Mon 03:12:55 PM 27.7833 -82.7833 270° West 266 306 3,000 1,263 Climbing Tampa TRACON
Mon 03:13:49 PM 27.8000 -82.8500 286° West 265 305 5,300 2,667 Climbing Tampa TRACON
Mon 03:15:01 PM 27.8667 -82.9000 326° Northwest 263 303 8,600 2,095 Climbing Tampa TRACON
Mon 03:16:38 PM 27.9956 -82.9092 356° North 263 303 11,200 1,682 Climbing Jacksonville Center
Mon 03:17:38 PM 28.0872 -82.8692 21° North 311 358 13,000 1,950 Climbing Jacksonville Center
Mon 03:18:38 PM 28.1792 -82.8289 21° North 330 380 15,100 1,950 Climbing Jacksonville Center
Mon 03:19:38 PM 28.2792 -82.7864 21° North 348 400 16,900 1,700 Climbing Jacksonville Center
Mon 03:20:38 PM 28.3856 -82.7744 North 357 411 18,500 1,600 Climbing Jacksonville Center
Mon 03:21:38 PM 28.4922 -82.7675 North 370 426 20,100 1,550 Climbing Jacksonville Center
Mon 03:22:38 PM 28.6006 -82.7578 North 376 433 21,600 1,500 Climbing Jacksonville Center
Mon 03:23:38 PM 28.6986 -82.7458 North 387 445 23,100 1,400 Climbing Jacksonville Center
Mon 03:24:38 PM 28.8114 -82.7339 North 392 451 24,400 1,200 Climbing Jacksonville Center
Mon 03:25:38 PM 28.9242 -82.7217 North 398 458 25,500 1,200 Climbing Jacksonville Center
Mon 03:26:38 PM 29.0389 -82.7097 North 403 464 26,800 1,000 Climbing Jacksonville Center
Mon 03:27:38 PM 29.1558 -82.6975 North 408 470 27,500 800 Climbing Jacksonville Center
Mon 03:28:38 PM 29.2789 -82.6856 North 420 483 28,400 850 Climbing Jacksonville Center
Mon 03:29:38 PM 29.4019 -82.6708 North 434 499 29,200 800 Climbing Jacksonville Center
Mon 03:30:38 PM 29.5419 -82.6611 North 445 512 30,000 400 Climbing Jacksonville Center
Mon 03:31:38 PM 29.6628 -82.6464 North 445 512 30,000 200 Level Jacksonville Center
Mon 03:32:38 PM 29.7861 -82.6269 North 440 506 30,400 450 Climbing Jacksonville Center
Mon 03:33:38 PM 29.9092 -82.6147 North 440 506 30,900 250 Climbing Jacksonville Center
Mon 03:34:38 PM 30.0303 -82.6072 North 440 506 30,900 50 Level Jacksonville Center
Mon 03:35:38 PM 30.1533 -82.5922 North 440 506 31,000 50 Climbing Jacksonville Center
Mon 03:36:38 PM 30.2786 -82.5800 North 440 506 31,000  Level Jacksonville Center
Mon 03:37:38 PM 30.3997 -82.5675 North 440 506 31,000  Level Jacksonville Center
Mon 03:38:38 PM 30.5250 -82.5525 North 440 506 31,000 -50 Level Jacksonville Center
Mon 03:39:38 PM 30.6439 -82.5472 North 440 506 30,900  Descending Jacksonville Center
Mon 03:40:38 PM 30.7631 -82.5444 North 440 506 31,000 50 Climbing Jacksonville Center
Mon 03:41:38 PM 30.8861 -82.5392 North 434 499 31,000  Level Jacksonville Center
Mon 03:42:38 PM 31.0053 -82.5339 North 434 499 31,000  Level Jacksonville Center
Mon 03:43:38 PM 31.1261 -82.5236 North 429 494 31,000  Level Jacksonville Center
Mon 03:44:38 PM 31.2411 -82.5256 359° North 423 487 31,000  Level Jacksonville Center
Mon 03:45:38 PM 31.3372 -82.5206 North 423 487 31,000  Level Jacksonville Center
Mon 03:47:29 PM 31.5783 -82.5008 North 414 476 31,000  Level Atlanta Center
Mon 03:48:29 PM 31.6972 -82.4864 North 420 483 31,000  Level Atlanta Center
Mon 03:49:29 PM 31.8139 -82.4650 North 426 490 31,000  Level Atlanta Center
Mon 03:50:29 PM 31.9367 -82.4481 North 426 490 31,000  Level Atlanta Center
Mon 03:51:29 PM 32.0553 -82.4289 North 426 490 31,000  Level Atlanta Center
Mon 03:52:29 PM 32.1783 -82.4119 North 426 490 31,000  Level Atlanta Center
Mon 03:53:29 PM 32.2803 -82.3881 11° North 420 483 31,000  Level Atlanta Center
Mon 03:54:29 PM 32.3992 -82.3733 North 420 483 31,000  Level Atlanta Center
Mon 03:55:29 PM 32.5200 -82.3539 North 426 490 31,000  Level Atlanta Center
Mon 03:56:29 PM 32.6406 -82.3344 North 426 490 31,000  Level Atlanta Center
Mon 03:57:29 PM 32.7614 -82.3147 North 426 490 31,000  Level Atlanta Center
Mon 03:58:29 PM 32.8844 -82.2950 North 432 497 31,000  Level Atlanta Center
Mon 03:59:29 PM 33.0031 -82.2753 North 432 497 31,000  Level Atlanta Center
Mon 04:00:29 PM 33.1281 -82.2578 North 432 497 31,000  Level Atlanta Center
Mon 04:01:29 PM 33.2467 -82.2381 North 438 504 31,000  Level Atlanta Center
Mon 04:02:29 PM 33.3819 -82.2153 North 444 511 31,000  Level Atlanta Center
Mon 04:03:29 PM 33.5008 -82.1953 North 444 511 31,000  Level Atlanta Center
Mon 04:04:29 PM 33.6214 -82.1753 North 444 511 31,000  Level Atlanta Center
Mon 04:05:29 PM 33.7464 -82.1525 North 444 511 31,000  Level Atlanta Center
Mon 04:06:29 PM 33.8672 -82.1325 North 444 511 31,000  Level Atlanta Center
Mon 04:07:29 PM 33.9878 -82.1122 North 444 511 31,000  Level Atlanta Center
Mon 04:08:29 PM 34.1086 -82.0919 North 444 511 31,000  Level Atlanta Center
Mon 04:09:29 PM 34.2189 -82.0717 North 444 511 31,000  Level Atlanta Center
Mon 04:10:29 PM 34.3375 -82.0514 North 439 505 31,000  Level Atlanta Center
Mon 04:11:29 PM 34.4603 -82.0308 North 439 505 31,000  Level Atlanta Center
Mon 04:12:29 PM 34.5789 -82.0103 North 439 505 31,000  Level Atlanta Center
Mon 04:13:29 PM 34.6975 -81.9872 North 444 511 31,000  Level Atlanta Center
Mon 04:14:29 PM 34.8161 -81.9692 North 439 505 31,000  Level Atlanta Center
Mon 04:15:29 PM 34.9411 -81.9508 North 439 505 31,000  Level Atlanta Center
Mon 04:16:29 PM 35.0556 -81.9378 North 434 499 31,000  Level Atlanta Center
Mon 04:17:29 PM 35.1706 -81.9450 357° North 419 482 31,000  Level Atlanta Center
Mon 04:18:29 PM 35.2814 -81.9628 353° North 407 468 31,000  Level Atlanta Center
Mon 04:19:29 PM 35.3942 -81.9778 354° North 407 468 31,000  Level Atlanta Center
Mon 04:20:29 PM 35.5072 -81.9903 355° North 407 468 31,000  Level Atlanta Center
Mon 04:21:29 PM 35.6200 -82.0028 355° North 407 468 31,000  Level Atlanta Center
Mon 04:22:29 PM 35.7350 -82.0178 354° North 407 468 31,000  Level Atlanta Center
Mon 04:23:29 PM 35.8542 -82.0300 355° North 412 474 31,000  Level Atlanta Center
Mon 04:24:29 PM 35.9628 -82.0428 355° North 407 468 31,000  Level Atlanta Center
Mon 04:25:29 PM 36.0756 -82.0581 354° North 407 468 31,000  Level Atlanta Center
Mon 04:26:29 PM 36.1886 -82.0706 355° North 407 468 31,000  Level Atlanta Center
Mon 04:27:29 PM 36.2972 -82.0808 356° North 402 463 31,000  Level Atlanta Center
Mon 04:28:29 PM 36.4100 -82.0961 354° North 402 463 31,000  Level Atlanta Center
Mon 04:30:04 PM 36.5936 -82.1189 354° North 406 467 31,000  Level Indianapolis Center
Mon 04:31:06 PM 36.7044 -82.1325 354° North 405 466 31,000  Level Indianapolis Center
Mon 04:32:08 PM 36.8156 -82.1475 354° North 405 466 31,000  Level Indianapolis Center
Mon 04:33:10 PM 36.9444 -82.1628 355° North 404 465 31,000 48 Level Indianapolis Center
Mon 04:34:12 PM 37.0550 -82.1778 354° North 403 464 31,100  Climbing Indianapolis Center
Mon 04:35:14 PM 37.1656 -82.1911 355° North 403 464 31,000 -48 Descending Indianapolis Center
Mon 04:36:16 PM 37.2750 -82.2058 354° North 400 460 31,000  Level Indianapolis Center
Mon 04:37:18 PM 37.3850 -82.2206 354° North 400 460 31,000  Level Indianapolis Center
Mon 04:38:20 PM 37.5133 -82.2364 354° North 400 460 31,000  Level Indianapolis Center
Mon 04:39:22 PM 37.6231 -82.2500 354° North 399 459 31,000  Level Indianapolis Center
Mon 04:40:25 PM 37.7328 -82.2656 354° North 399 459 31,000  Level Indianapolis Center
Mon 04:41:27 PM 37.8428 -82.2792 354° North 399 459 31,000  Level Indianapolis Center
Mon 04:42:29 PM 37.9525 -82.2928 354° North 399 459 31,000  Level Indianapolis Center
Mon 04:43:31 PM 38.0814 -82.3103 354° North 398 458 31,000  Level Indianapolis Center
Mon 04:44:33 PM 38.1956 -82.3250 354° North 398 458 31,000  Level Indianapolis Center
Mon 04:45:35 PM 38.3078 -82.3386 355° North 398 458 31,000  Level Indianapolis Center
Mon 04:46:37 PM 38.4172 -82.3550 353° North 398 458 31,000  Level Indianapolis Center
Mon 04:47:39 PM 38.5283 -82.3683 355° North 398 458 31,000  Level Indianapolis Center
Mon 04:48:41 PM 38.6386 -82.3828 354° North 398 458 31,000  Level Indianapolis Center
Mon 04:49:43 PM 38.7494 -82.3975 354° North 398 458 31,000  Level Indianapolis Center
Mon 04:50:45 PM 38.8589 -82.4125 354° North 397 457 31,000  Level Indianapolis Center
Mon 04:51:48 PM 38.9669 -82.4261 354° North 391 450 31,000  Level Indianapolis Center
Mon 04:52:50 PM 39.0942 -82.4447 354° North 384 442 31,000 -48 Level Indianapolis Center
Mon 04:53:52 PM 39.1944 -82.4764 346° North 378 435 30,900 -387 Descending Indianapolis Center
Mon 04:54:54 PM 39.2994 -82.5117 345° North 369 425 30,200 -435 Descending Indianapolis Center
Mon 04:55:56 PM 39.3992 -82.5442 346° North 369 425 30,000 -97 Descending Indianapolis Center
Mon 04:56:58 PM 39.4967 -82.5772 345° North 369 425 30,000  Level Indianapolis Center
Mon 04:58:00 PM 39.5950 -82.6092 346° North 368 423 30,000  Level Indianapolis Center
Mon 04:59:03 PM 39.6928 -82.6422 345° North 367 422 30,000  Level Indianapolis Center
Mon 05:00:05 PM 39.8125 -82.6819 346° North 367 422 30,000  Level Indianapolis Center
Mon 05:01:07 PM 39.9122 -82.7153 346° North 368 423 30,000  Level Indianapolis Center
Mon 05:02:09 PM 40.0131 -82.7489 346° North 370 426 30,000  Level Indianapolis Center
Mon 05:03:11 PM 40.1147 -82.7836 345° North 374 430 30,000  Level Indianapolis Center
Mon 05:04:13 PM 40.2158 -82.8186 345° North 375 432 30,000  Level Indianapolis Center
Mon 05:05:15 PM 40.3372 -82.8594 346° North 377 434 30,000  Level Indianapolis Center
Mon 05:06:17 PM 40.4364 -82.8931 346° North 376 433 30,000 -242 Level Indianapolis Center
Mon 05:07:19 PM 40.5361 -82.9272 345° North 375 432 29,500 -484 Descending Indianapolis Center
Mon 05:08:21 PM 40.6317 -82.9592 346° North 363 418 29,000 -242 Descending Indianapolis Center
Mon 05:09:23 PM 40.7297 -82.9931 345° North 363 418 29,000  Level Indianapolis Center
Mon 05:10:25 PM 40.8272 -83.0283 345° North 364 419 29,000  Level Indianapolis Center
Mon 05:11:27 PM 40.9447 -83.0678 346° North 364 419 29,000  Level Indianapolis Center
Mon 05:12:29 PM 41.0439 -83.1017 346° North 365 420 29,000  Level Indianapolis Center
Mon 05:13:31 PM 41.1414 -83.1364 345° North 365 420 29,000  Level Indianapolis Center
Mon 05:14:33 PM 41.2394 -83.1700 346° North 365 420 29,000  Level Indianapolis Center
Mon 05:15:35 PM 41.3372 -83.2056 345° North 365 420 29,000  Level Indianapolis Center
Mon 05:16:37 PM 41.4375 -83.2406 345° North 369 425 29,000 -726 Level Indianapolis Center
Mon 05:17:39 PM 41.5569 -83.2833 345° North 369 425 27,500 -1,548 Descending Indianapolis Center
Mon 05:18:41 PM 41.6333 -83.3536 325° Northwest 339 390 25,800 -1,645 Descending Indianapolis Center
Mon 05:19:43 PM 41.6861 -83.4433 308° West 312 359 24,100 -1,645 Descending Indianapolis Center
Mon 05:20:45 PM 41.7386 -83.5328 308° West 311 358 22,400 -1,016 Descending Indianapolis Center
Mon 05:21:47 PM 41.7886 -83.6175 308° West 299 344 22,000 -194 Descending Indianapolis Center
Mon 05:22:49 PM 41.8386 -83.7022 308° West 294 338 22,000  Level Indianapolis Center
Mon 05:24:10 PM 41.9061 -83.8147 309° West 284 327 22,000  Level Cleveland Center
Mon 05:25:12 PM 41.9642 -83.9153 308° West 283 326 22,000  Level Cleveland Center
Mon 05:26:14 PM 42.0125 -83.9989 308° West 283 326 22,000 -532 Level Cleveland Center
Mon 05:27:16 PM 42.0617 -84.0822 308° West 283 326 20,900 -1,488 Descending Cleveland Center
Mon 05:28:19 PM 42.1131 -84.1711 308° West 294 338 18,900 -1,536 Descending Cleveland Center
Mon 05:29:21 PM 42.1669 -84.2639 308° West 308 354 17,700 -1,452 Descending Cleveland Center
Mon 05:30:23 PM 42.2178 -84.3511 308° West 302 348 15,900 -2,032 Descending Cleveland Center
Mon 05:31:25 PM 42.2761 -84.4528 308° West 289 333 13,500 -2,177 Descending Cleveland Center
Mon 05:32:27 PM 42.3239 -84.5361 308° West 285 328 11,400 -1,694 Descending Cleveland Center
Mon 05:33:29 PM 42.3711 -84.6183 308° West 279 321 10,000 -677 Descending Cleveland Center
Mon 05:34:31 PM 42.4161 -84.6981 307° West 255 293 10,000 -484 Level Cleveland Center
Mon 05:35:33 PM 42.4586 -84.7683 309° West 245 282 9,000 -968 Descending Cleveland Center
Mon 05:36:35 PM 42.5031 -84.8347 312° West 240 276 8,000 -480 Descending Cleveland Center
Mon 05:37:38 PM 42.5478 -84.8983 314° West 237 273 8,000  Level Cleveland Center
Mon 05:38:40 PM 42.5939 -84.9608 315° West 237 273 8,000 -629 Level Cleveland Center
Mon 05:39:42 PM 42.6528 -85.0347 317° Northwest 237 273 6,700 -1,355 Descending Cleveland Center
Mon 05:40:44 PM 42.6967 -85.0956 314° West 231 266 5,200 -1,306 Descending Cleveland Center
Mon 05:41:46 PM 42.7456 -85.1561 318° Northwest 232 267 4,000 -823 Descending Cleveland Center
Mon 05:42:48 PM 42.7886 -85.2111 317° Northwest 221 254 3,500 -726 Descending Cleveland Center
Mon 05:43:50 PM 42.8289 -85.2600 318° Northwest 205 236 2,500 -451 Descending Cleveland Center
Mon 05:45:01 PM 42.8775 -85.3181 319° Northwest 199 229 2,500  Level Chicago Center
Mon 05:46:03 PM 42.9036 -85.3647 307° West 187 215 2,500 -290 Level Chicago Center
Mon 05:47:05 PM 42.8886 -85.4319 253° West 164 189 1,900 -629 Descending Chicago Center
Mon 05:48:07 PM 42.8825 -85.4814 260° West 145 167 1,200 -484 Descending Chicago Center
Mon 05:49:09 PM 42.8769 -85.5283 261° West 141 162 900 -290 Descending Chicago Center

Login

Don't have an account? Register now (free) for customized features, flight alerts, and more!